Terminal Aerodrome Forecast
Issued by NWS Twin Cities, MN

Home | Current Version | Previous Version | Text Only | Print | Product List | Glossary Off
Versions: 1 2 3 4 5 6 7 8 9 10 11 12 13 14 15 16 17 18

071
FTUS43 KMPX 201739
TAFEAU
TAF
KEAU 201739Z 2018/2118 36006KT P6SM SCT010 OVC020
     FM202000 32010KT P6SM OVC020
     FM210000 33012KT P6SM OVC025
     FM210300 32012KT P6SM OVC020
     FM210900 32007KT P6SM SCT020=

USA.gov is the U.S. government's official web portal to all federal, state and local government web resources and services.